Time,TemperatureF,DewpointF,PressureIn,WindDirection,WindDirectionDegrees,WindSpeedMPH,WindSpeedGustMPH,Humidity,HourlyPrecipIn,Conditions,Clouds,dailyrainin,SoftwareType,DateUTC
2013-01-21 00:16:00,21.7,11.0,30.22,WNW,292,5.0,10.0,64,0.00,,,0.00,weatherlink.com 1.10,2013-01-21 05:16:00,
2013-01-21 00:31:00,21.6,11.0,30.22,WNW,294,1.0,8.0,65,0.00,,,0.00,weatherlink.com 1.10,2013-01-21 05:31:00,
2013-01-21 00:46:00,21.6,11.0,30.21,NW,309,6.0,11.0,65,0.00,,,0.00,weatherlink.com 1.10,2013-01-21 05:46:00,
2013-01-21 01:02:00,21.5,10.0,30.20,WNW,288,4.0,10.0,62,0.00,,,0.00,weatherlink.com 1.10,2013-01-21 06:02:00,
2013-01-21 01:32:00,21.2,11.0,30.19,WNW,292,3.0,11.0,64,0.00,,,0.00,weatherlink.com 1.10,2013-01-21 06:32:00,
2013-01-21 01:49:00,21.1,11.0,30.18,West,280,7.0,10.0,64,0.00,,,0.00,weatherlink.com 1.10,2013-01-21 06:49:00,
2013-01-21 02:03:00,21.1,11.0,30.19,NW,305,4.0,9.0,65,0.00,,,0.00,weatherlink.com 1.10,2013-01-21 07:03:00,
2013-01-21 02:18:00,21.0,11.0,30.19,West,267,5.0,12.0,66,0.00,,,0.00,weatherlink.com 1.10,2013-01-21 07:18:00,
2013-01-21 02:34:00,20.9,12.0,30.19,NW,310,5.0,11.0,68,0.00,,,0.00,weatherlink.com 1.10,2013-01-21 07:34:00,
2013-01-21 02:48:00,20.7,12.0,30.19,WNW,287,5.0,10.0,68,0.00,,,0.00,weatherlink.com 1.10,2013-01-21 07:48:00,
2013-01-21 03:04:00,20.3,11.0,30.20,NNW,328,9.0,12.0,67,0.00,,,0.00,weatherlink.com 1.10,2013-01-21 08:04:00,
2013-01-21 03:19:00,19.9,10.0,30.19,WNW,282,4.0,13.0,66,0.00,,,0.00,weatherlink.com 1.10,2013-01-21 08:19:00,
2013-01-21 03:35:00,19.8,10.0,30.18,NW,322,5.0,12.0,67,0.00,,,0.00,weatherlink.com 1.10,2013-01-21 08:35:00,
2013-01-21 03:49:00,19.8,11.0,30.18,WNW,300,2.0,12.0,69,0.00,,,0.00,weatherlink.com 1.10,2013-01-21 08:49:00,
2013-01-21 04:06:00,19.6,11.0,30.17,WNW,283,6.0,11.0,69,0.00,,,0.00,weatherlink.com 1.10,2013-01-21 09:06:00,
2013-01-21 04:21:00,19.6,11.0,30.17,West,275,5.0,11.0,70,0.00,,,0.00,weatherlink.com 1.10,2013-01-21 09:21:00,
2013-01-21 04:37:00,19.3,11.0,30.16,WNW,292,4.0,14.0,71,0.00,,,0.00,weatherlink.com 1.10,2013-01-21 09:37:00,
2013-01-21 05:07:00,19.0,11.0,30.15,WNW,294,3.0,11.0,71,0.00,,,0.00,weatherlink.com 1.10,2013-01-21 10:07:00,
2013-01-21 05:21:00,18.9,11.0,30.15,WNW,288,6.0,11.0,71,0.00,,,0.00,weatherlink.com 1.10,2013-01-21 10:21:00,
2013-01-21 05:37:00,18.7,11.0,30.15,West,281,8.0,12.0,71,0.00,,,0.00,weatherlink.com 1.10,2013-01-21 10:37:00,
2013-01-21 05:53:00,18.5,10.0,30.15,WNW,286,7.0,14.0,69,0.00,,,0.00,weatherlink.com 1.10,2013-01-21 10:53:00,
2013-01-21 06:09:00,18.5,10.0,30.14,West,269,6.0,12.0,70,0.00,,,0.00,weatherlink.com 1.10,2013-01-21 11:09:00,
2013-01-21 06:23:00,18.3,11.0,30.15,WSW,255,9.0,15.0,72,0.00,,,0.00,weatherlink.com 1.10,2013-01-21 11:23:00,
2013-01-21 06:39:00,18.0,11.0,30.15,West,263,12.0,20.0,73,0.00,,,0.00,weatherlink.com 1.10,2013-01-21 11:39:00,
2013-01-21 06:54:00,17.7,10.0,30.16,West,266,11.0,15.0,73,0.00,,,0.00,weatherlink.com 1.10,2013-01-21 11:54:00,
2013-01-21 07:08:00,17.5,10.0,30.15,WSW,256,6.0,20.0,73,0.00,,,0.00,weatherlink.com 1.10,2013-01-21 12:08:00,
2013-01-21 07:24:00,17.1,10.0,30.15,West,281,15.0,19.0,72,0.00,,,0.00,weatherlink.com 1.10,2013-01-21 12:24:00,
2013-01-21 07:40:00,17.1,10.0,30.15,NW,304,13.0,16.0,72,0.00,,,0.00,weatherlink.com 1.10,2013-01-21 12:40:00,
2013-01-21 07:54:00,17.0,10.0,30.15,West,265,6.0,19.0,73,0.00,,,0.00,weatherlink.com 1.10,2013-01-21 12:54:00,
2013-01-21 08:10:00,17.1,10.0,30.14,WNW,295,6.0,15.0,74,0.00,,,0.00,weatherlink.com 1.10,2013-01-21 13:10:00,
2013-01-21 08:25:00,17.2,11.0,30.14,West,259,9.0,18.0,76,0.00,,,0.00,weatherlink.com 1.10,2013-01-21 13:25:00,
2013-01-21 08:39:00,17.1,12.0,30.14,WSW,244,10.0,14.0,79,0.00,,,0.00,weatherlink.com 1.10,2013-01-21 13:39:00,
2013-01-21 08:55:00,16.7,11.0,30.15,West,265,10.0,17.0,77,0.00,,,0.00,weatherlink.com 1.10,2013-01-21 13:55:00,
2013-01-21 09:11:00,16.5,12.0,30.15,WNW,296,10.0,16.0,82,0.00,,,0.00,weatherlink.com 1.10,2013-01-21 14:11:00,
2013-01-21 09:27:00,16.2,12.0,30.15,WNW,286,11.0,18.0,84,0.00,,,0.00,weatherlink.com 1.10,2013-01-21 14:27:00,
2013-01-21 09:41:00,16.2,13.0,30.16,WNW,297,9.0,15.0,85,0.00,,,0.00,weatherlink.com 1.10,2013-01-21 14:41:00,
2013-01-21 09:57:00,15.6,12.0,30.16,WNW,284,7.0,14.0,87,0.00,,,0.00,weatherlink.com 1.10,2013-01-21 14:57:00,
2013-01-21 10:11:00,15.4,12.0,30.16,West,259,11.0,17.0,87,0.00,,,0.00,weatherlink.com 1.10,2013-01-21 15:11:00,
2013-01-21 10:27:00,15.1,12.0,30.16,West,268,3.0,20.0,88,0.00,,,0.00,weatherlink.com 1.10,2013-01-21 15:27:00,
2013-01-21 10:42:00,13.5,10.0,30.17,NW,320,7.0,18.0,87,0.00,,,0.00,weatherlink.com 1.10,2013-01-21 15:42:00,
2013-01-21 10:57:00,14.0,10.0,30.17,NW,304,7.0,19.0,85,0.00,,,0.00,weatherlink.com 1.10,2013-01-21 15:57:00,
2013-01-21 11:13:00,15.0,10.0,30.18,West,263,15.0,18.0,81,0.00,,,0.00,weatherlink.com 1.10,2013-01-21 16:13:00,
2013-01-21 11:28:00,15.4,10.0,30.17,West,273,10.0,22.0,78,0.00,,,0.00,weatherlink.com 1.10,2013-01-21 16:28:00,
2013-01-21 11:44:00,15.7,9.0,30.17,WSW,253,13.0,19.0,74,0.00,,,0.00,weatherlink.com 1.10,2013-01-21 16:44:00,
2013-01-21 12:00:00,15.8,8.0,30.16,West,259,17.0,20.0,71,0.00,,,0.00,weatherlink.com 1.10,2013-01-21 17:00:00,
2013-01-21 12:13:00,15.7,8.0,30.16,WNW,292,18.0,21.0,70,0.00,,,0.00,weatherlink.com 1.10,2013-01-21 17:13:00,
2013-01-21 12:29:00,15.3,8.0,30.16,NNW,344,11.0,17.0,72,0.00,,,0.00,weatherlink.com 1.10,2013-01-21 17:29:00,
2013-01-21 12:45:00,15.9,8.0,30.15,West,277,13.0,22.0,71,0.00,,,0.00,weatherlink.com 1.10,2013-01-21 17:45:00,
2013-01-21 13:00:00,16.2,9.0,30.14,West,267,10.0,20.0,73,0.00,,,0.00,weatherlink.com 1.10,2013-01-21 18:00:00,
2013-01-21 13:16:00,15.1,10.0,30.14,NW,306,6.0,19.0,81,0.00,,,0.00,weatherlink.com 1.10,2013-01-21 18:16:00,
2013-01-21 13:29:00,15.5,8.0,30.14,WNW,290,17.0,20.0,73,0.00,,,0.00,weatherlink.com 1.10,2013-01-21 18:29:00,
2013-01-21 13:45:00,15.0,9.0,30.14,WNW,286,16.0,21.0,76,0.00,,,0.00,weatherlink.com 1.10,2013-01-21 18:45:00,
2013-01-21 14:00:00,14.7,8.0,30.14,West,265,15.0,23.0,75,0.00,,,0.00,weatherlink.com 1.10,2013-01-21 19:00:00,
2013-01-21 14:16:00,15.2,8.0,30.15,NW,309,7.0,22.0,73,0.00,,,0.00,weatherlink.com 1.10,2013-01-21 19:16:00,
2013-01-21 14:31:00,14.5,7.0,30.15,WNW,290,10.0,20.0,71,0.00,,,0.00,weatherlink.com 1.10,2013-01-21 19:31:00,
2013-01-21 14:47:00,14.6,4.0,30.16,NW,306,7.0,18.0,64,0.00,,,0.00,weatherlink.com 1.10,2013-01-21 19:47:00,
2013-01-21 15:01:00,14.6,4.0,30.16,West,260,18.0,21.0,63,0.00,,,0.00,weatherlink.com 1.10,2013-01-21 20:01:00,
2013-01-21 15:16:00,14.5,4.0,30.17,West,266,15.0,23.0,64,0.00,,,0.00,weatherlink.com 1.10,2013-01-21 20:16:00,
2013-01-21 15:31:00,14.2,6.0,30.18,WNW,291,9.0,20.0,70,0.00,,,0.00,weatherlink.com 1.10,2013-01-21 20:31:00,
2013-01-21 15:47:00,13.5,6.0,30.18,WNW,292,5.0,21.0,72,0.00,,,0.00,weatherlink.com 1.10,2013-01-21 20:47:00,
2013-01-21 16:03:00,14.2,6.0,30.18,WNW,288,14.0,22.0,71,0.00,,,0.00,weatherlink.com 1.10,2013-01-21 21:03:00,
2013-01-21 16:17:00,14.0,7.0,30.19,WSW,255,10.0,23.0,73,0.00,,,0.00,weatherlink.com 1.10,2013-01-21 21:17:00,
2013-01-21 16:33:00,13.1,6.0,30.20,WNW,289,5.0,18.0,73,0.00,,,0.00,weatherlink.com 1.10,2013-01-21 21:33:00,
2013-01-21 16:48:00,12.9,4.0,30.20,WNW,292,10.0,24.0,67,0.00,,,0.00,weatherlink.com 1.10,2013-01-21 21:48:00,
2013-01-21 17:03:00,12.7,2.0,30.20,WNW,303,13.0,17.0,63,0.00,,,0.00,weatherlink.com 1.10,2013-01-21 22:03:00,
2013-01-21 17:19:00,12.6,2.0,30.20,West,281,6.0,16.0,62,0.00,,,0.00,weatherlink.com 1.10,2013-01-21 22:19:00,
2013-01-21 17:35:00,12.4,1.0,30.21,WNW,295,6.0,18.0,61,0.00,,,0.00,weatherlink.com 1.10,2013-01-21 22:35:00,
2013-01-21 17:50:00,12.3,1.0,30.21,WNW,302,8.0,21.0,60,0.00,,,0.00,weatherlink.com 1.10,2013-01-21 22:50:00,
2013-01-21 18:04:00,11.9,0.0,30.21,West,263,7.0,20.0,60,0.00,,,0.00,weatherlink.com 1.10,2013-01-21 23:04:00,
2013-01-21 18:21:00,11.7,1.0,30.22,WNW,285,9.0,17.0,61,0.00,,,0.00,weatherlink.com 1.10,2013-01-21 23:21:00,
2013-01-21 18:36:00,11.4,0.0,30.22,NW,311,5.0,17.0,61,0.00,,,0.00,weatherlink.com 1.10,2013-01-21 23:36:00,
2013-01-21 18:52:00,11.1,0.0,30.22,WNW,284,6.0,15.0,62,0.00,,,0.00,weatherlink.com 1.10,2013-01-21 23:52:00,
2013-01-21 19:06:00,10.9,0.0,30.23,West,279,10.0,17.0,62,0.00,,,0.00,weatherlink.com 1.10,2013-01-22 00:06:00,
2013-01-21 19:21:00,10.8,0.0,30.23,West,268,8.0,18.0,61,0.00,,,0.00,weatherlink.com 1.10,2013-01-22 00:21:00,
2013-01-21 19:37:00,10.6,0.0,30.23,WNW,282,8.0,17.0,62,0.00,,,0.00,weatherlink.com 1.10,2013-01-22 00:37:00,
2013-01-21 19:52:00,10.5,-1.0,30.23,West,280,10.0,16.0,61,0.00,,,0.00,weatherlink.com 1.10,2013-01-22 00:52:00,
2013-01-21 20:06:00,10.3,-1.0,30.23,WNW,293,4.0,14.0,62,0.00,,,0.00,weatherlink.com 1.10,2013-01-22 01:06:00,
2013-01-21 20:22:00,10.2,-1.0,30.24,West,263,6.0,16.0,62,0.00,,,0.00,weatherlink.com 1.10,2013-01-22 01:22:00,
2013-01-21 20:38:00,10.1,-1.0,30.24,West,265,13.0,15.0,62,0.00,,,0.00,weatherlink.com 1.10,2013-01-22 01:38:00,
2013-01-21 20:52:00,10.0,-1.0,30.25,NW,304,10.0,15.0,61,0.00,,,0.00,weatherlink.com 1.10,2013-01-22 01:52:00,
2013-01-21 21:09:00,9.9,-1.0,30.25,West,273,10.0,13.0,62,0.00,,,0.00,weatherlink.com 1.10,2013-01-22 02:09:00,
2013-01-21 21:24:00,9.9,-1.0,30.25,WSW,255,7.0,16.0,61,0.00,,,0.00,weatherlink.com 1.10,2013-01-22 02:24:00,
2013-01-21 21:39:00,9.8,-1.0,30.26,West,270,9.0,14.0,62,0.00,,,0.00,weatherlink.com 1.10,2013-01-22 02:39:00,
2013-01-21 21:55:00,9.8,-1.0,30.26,NW,304,5.0,16.0,63,0.00,,,0.00,weatherlink.com 1.10,2013-01-22 02:55:00,
2013-01-21 22:10:00,9.7,-1.0,30.27,NW,304,7.0,17.0,63,0.00,,,0.00,weatherlink.com 1.10,2013-01-22 03:10:00,
2013-01-21 22:25:00,9.6,-1.0,30.27,West,278,9.0,15.0,63,0.00,,,0.00,weatherlink.com 1.10,2013-01-22 03:25:00,
2013-01-21 22:41:00,9.4,-1.0,30.28,WNW,292,10.0,13.0,64,0.00,,,0.00,weatherlink.com 1.10,2013-01-22 03:41:00,
2013-01-21 22:56:00,9.2,-1.0,30.28,WNW,301,9.0,14.0,63,0.00,,,0.00,weatherlink.com 1.10,2013-01-22 03:56:00,
2013-01-21 23:12:00,9.1,-2.0,30.28,NW,315,8.0,18.0,62,0.00,,,0.00,weatherlink.com 1.10,2013-01-22 04:12:00,
2013-01-21 23:26:00,8.9,-1.0,30.29,West,271,3.0,14.0,63,0.00,,,0.00,weatherlink.com 1.10,2013-01-22 04:26:00,
2013-01-21 23:41:00,8.8,-2.0,30.29,WNW,282,6.0,20.0,63,0.00,,,0.00,weatherlink.com 1.10,2013-01-22 04:41:00,
2013-01-21 23:56:00,8.6,-1.0,30.29,West,262,5.0,17.0,64,0.00,,,0.00,weatherlink.com 1.10,2013-01-22 04:56:00,